Time;durP1;ratioP1;P1;durP2;ratioP2;P2;SDS_P1;SDS_P2;PMS_P1;PMS_P2;Temp;Humidity;BMP_temperature;BMP_pressure;BME280_temperature;BME280_humidity;BME280_pressure;Samples;Min_cycle;Max_cycle;Signal;HPM_P1;HPM_P2
2022/04/09 00:00:36;;;;;;;14.65;8.45;;;;;;;5.98;100.00;99835.28;1722724;83;21116;-62
2022/04/09 00:03:04;;;;;;;18.05;9.35;;;;;;;5.98;100.00;99827.61;1722943;82;21087;-62
2022/04/09 00:05:31;;;;;;;15.45;8.10;;;;;;;5.97;100.00;99823.38;1722733;83;21059;-62
2022/04/09 00:08:00;;;;;;;17.37;8.40;;;;;;;5.95;100.00;99825.16;1722598;82;21560;-62
2022/04/09 00:10:27;;;;;;;15.30;8.50;;;;;;;5.96;100.00;99835.78;1722692;83;21582;-62
2022/04/09 00:12:56;;;;;;;16.55;8.58;;;;;;;5.93;100.00;99842.22;1722716;83;21079;-62
2022/04/09 00:15:24;;;;;;;14.87;8.20;;;;;;;5.95;100.00;99842.20;1718049;83;21395;-61
2022/04/09 00:17:51;;;;;;;12.50;8.08;;;;;;;5.92;100.00;99839.30;1696843;84;21042;-62
2022/04/09 00:20:20;;;;;;;14.18;8.80;;;;;;;5.91;100.00;99832.95;1696764;84;21011;-62
2022/04/09 00:22:49;;;;;;;15.43;8.20;;;;;;;5.90;100.00;99841.50;1696766;84;21096;-62
2022/04/09 00:25:23;;;;;;;15.00;8.35;;;;;;;5.87;100.00;99839.89;1696980;84;21047;-62
2022/04/09 00:27:47;;;;;;;14.87;8.40;;;;;;;5.83;100.00;99845.99;1696549;84;21067;-62
2022/04/09 00:30:14;;;;;;;14.05;9.00;;;;;;;5.79;100.00;99838.88;1696968;84;21065;-61
2022/04/09 00:32:43;;;;;;;16.55;8.73;;;;;;;5.82;100.00;99835.41;1696779;84;21042;-62
2022/04/09 00:35:10;;;;;;;15.88;9.05;;;;;;;5.79;100.00;99835.05;1696904;83;21562;-62
2022/04/09 00:37:46;;;;;;;18.10;8.85;;;;;;;5.77;100.00;99836.81;1697014;84;21034;-62
2022/04/09 00:40:19;;;;;;;13.90;8.78;;;;;;;5.75;100.00;99832.21;1696662;84;21056;-62
2022/04/09 00:42:47;;;;;;;17.73;8.97;;;;;;;5.76;100.00;99835.63;1697264;84;21097;-62
2022/04/09 00:45:15;;;;;;;13.58;8.98;;;;;;;5.77;100.00;99846.20;1697051;84;21491;-62
2022/04/09 00:47:43;;;;;;;13.13;8.53;;;;;;;5.67;100.00;99849.52;1697081;83;21098;-62
2022/04/09 00:50:12;;;;;;;14.83;8.83;;;;;;;5.65;100.00;99856.40;1696818;83;21042;-62
2022/04/09 00:52:46;;;;;;;13.50;8.73;;;;;;;5.61;100.00;99851.83;1696988;84;21026;-62
2022/04/09 00:55:20;;;;;;;14.20;8.33;;;;;;;5.54;100.00;99859.78;1696960;84;21003;-63
2022/04/09 00:57:51;;;;;;;14.80;9.25;;;;;;;5.52;100.00;99870.03;1696654;84;21511;-62
2022/04/09 01:00:20;;;;;;;15.03;9.35;;;;;;;5.53;100.00;99877.23;1696901;84;21055;-62
2022/04/09 01:02:47;;;;;;;14.38;8.80;;;;;;;5.52;100.00;99879.42;1696829;84;21566;-62
2022/04/09 01:05:16;;;;;;;15.25;9.78;;;;;;;5.52;100.00;99888.35;1696838;84;21039;-62
2022/04/09 01:07:47;;;;;;;14.78;9.58;;;;;;;5.50;100.00;99901.16;1696884;84;21046;-62
2022/04/09 01:10:15;;;;;;;16.25;9.60;;;;;;;5.47;100.00;99901.25;1697018;83;21015;-61
2022/04/09 01:12:43;;;;;;;16.35;9.80;;;;;;;5.45;100.00;99899.19;1696834;84;21007;-61
2022/04/09 01:15:11;;;;;;;15.30;9.55;;;;;;;5.42;100.00;99900.58;1696953;84;21058;-61
2022/04/09 01:17:41;;;;;;;16.45;9.68;;;;;;;5.36;100.00;99902.05;1696667;83;20999;-61
2022/04/09 01:20:22;;;;;;;16.50;9.88;;;;;;;5.39;100.00;99901.94;1696870;84;21709;-61
2022/04/09 01:22:51;;;;;;;15.30;9.05;;;;;;;5.38;100.00;99913.88;1697001;84;21014;-62
2022/04/09 01:25:20;;;;;;;15.68;9.25;;;;;;;5.32;100.00;99911.52;1696823;84;21045;-63
2022/04/09 01:27:49;;;;;;;14.85;9.45;;;;;;;5.33;100.00;99909.37;1697003;84;21280;-62
2022/04/09 01:30:18;;;;;;;17.52;9.95;;;;;;;5.28;100.00;99907.40;1696925;83;21050;-62
2022/04/09 01:32:46;;;;;;;16.60;9.50;;;;;;;5.29;100.00;99909.50;1696926;84;21034;-62
2022/04/09 01:35:14;;;;;;;17.65;10.15;;;;;;;5.27;100.00;99905.75;1696951;83;21534;-62
2022/04/09 01:37:42;;;;;;;17.25;10.00;;;;;;;5.33;100.00;99918.31;1696949;84;21035;-62
2022/04/09 01:40:11;;;;;;;13.32;9.35;;;;;;;5.28;100.00;99911.22;1696796;84;21074;-62
2022/04/09 01:42:41;;;;;;;20.95;10.18;;;;;;;5.26;100.00;99914.27;1697018;84;21026;-62
2022/04/09 01:45:10;;;;;;;13.58;9.15;;;;;;;5.27;100.00;99918.92;1696925;84;21069;-62
2022/04/09 01:47:42;;;;;;;13.90;9.50;;;;;;;5.32;100.00;99918.34;1697138;84;20995;-62
2022/04/09 01:50:10;;;;;;;13.90;9.15;;;;;;;5.36;100.00;99928.41;1696592;84;21042;-62
2022/04/09 01:52:39;;;;;;;13.68;9.10;;;;;;;5.35;100.00;99926.75;1697178;84;21057;-62
2022/04/09 01:55:08;;;;;;;15.72;9.20;;;;;;;5.30;100.00;99936.25;1697063;84;21078;-62
2022/04/09 01:57:37;;;;;;;16.45;8.88;;;;;;;5.30;100.00;99931.60;1696952;83;21102;-62
2022/04/09 02:00:11;;;;;;;14.00;8.93;;;;;;;5.19;100.00;99917.87;1696964;83;21058;-61
2022/04/09 02:02:43;;;;;;;17.80;10.08;;;;;;;5.23;100.00;99913.08;1696928;83;21030;-61
2022/04/09 02:05:14;;;;;;;17.00;9.38;;;;;;;5.27;100.00;99919.78;1697036;84;21535;-61
2022/04/09 02:07:43;;;;;;;15.55;9.68;;;;;;;5.35;100.00;99921.64;1696968;84;21023;-61
2022/04/09 02:10:13;;;;;;;14.15;9.18;;;;;;;5.38;100.00;99926.64;1696865;83;21097;-62
2022/04/09 02:12:45;;;;;;;15.60;9.68;;;;;;;5.19;100.00;99938.30;1696702;84;21078;-61
2022/04/09 02:15:16;;;;;;;15.32;9.48;;;;;;;5.07;100.00;99933.57;1696917;84;21101;-61
2022/04/09 02:17:45;;;;;;;16.35;9.88;;;;;;;4.94;100.00;99935.22;1695388;82;21035;-62
2022/04/09 02:20:15;;;;;;;14.05;8.58;;;;;;;4.91;100.00;99942.16;1677761;85;21541;-62
2022/04/09 02:22:46;;;;;;;19.55;10.90;;;;;;;4.90;100.00;99948.12;1677641;85;21088;-62
2022/04/09 02:25:17;;;;;;;16.27;10.43;;;;;;;4.84;100.00;99955.50;1678327;85;21056;-62
2022/04/09 02:27:45;;;;;;;15.80;10.78;;;;;;;4.69;100.00;99955.97;1678060;85;21000;-62
2022/04/09 02:30:15;;;;;;;17.27;11.25;;;;;;;4.61;100.00;99948.53;1678145;85;21095;-62
2022/04/09 02:32:51;;;;;;;17.23;10.65;;;;;;;4.58;100.00;99957.11;1676294;85;21068;-62
2022/04/09 02:35:26;;;;;;;16.23;10.90;;;;;;;4.49;100.00;99957.35;1677922;85;21040;-62
2022/04/09 02:37:57;;;;;;;15.08;10.80;;;;;;;4.38;100.00;99961.48;1677932;85;21040;-62
2022/04/09 02:40:25;;;;;;;17.05;11.45;;;;;;;4.31;100.00;99960.41;1677852;85;21505;-62
2022/04/09 02:42:53;;;;;;;17.42;10.58;;;;;;;4.20;100.00;99965.36;1678080;85;21059;-62
2022/04/09 02:45:24;;;;;;;16.35;10.60;;;;;;;4.19;100.00;99976.86;1677654;85;21016;-63
2022/04/09 02:47:52;;;;;;;15.90;10.40;;;;;;;4.10;100.00;99988.58;1677869;85;21084;-62
2022/04/09 02:50:21;;;;;;;16.65;10.10;;;;;;;3.91;100.00;99995.83;1678068;85;21084;-62
2022/04/09 02:52:49;;;;;;;15.45;9.83;;;;;;;3.96;100.00;99998.66;1677887;85;21048;-64
2022/04/09 02:55:19;;;;;;;13.88;9.48;;;;;;;3.98;100.00;100001.17;1677863;85;21072;-62
2022/04/09 02:57:47;;;;;;;15.88;10.10;;;;;;;3.98;100.00;100002.45;1677753;85;21160;-62
2022/04/09 03:00:18;;;;;;;15.65;10.00;;;;;;;3.94;100.00;100005.95;1677626;85;21099;-62
2022/04/09 03:02:45;;;;;;;16.45;9.70;;;;;;;3.90;100.00;100011.98;1677916;85;21023;-62
2022/04/09 03:05:17;;;;;;;17.17;10.50;;;;;;;3.96;100.00;100005.47;1675953;85;21048;-62
2022/04/09 03:07:45;;;;;;;17.70;10.43;;;;;;;3.85;100.00;100002.34;1677919;85;21434;-62
2022/04/09 03:10:12;;;;;;;15.88;10.08;;;;;;;3.80;100.00;99998.64;1677728;85;21154;-62
2022/04/09 03:12:45;;;;;;;19.73;10.63;;;;;;;3.82;100.00;99993.08;1677716;85;21092;-62
2022/04/09 03:15:13;;;;;;;20.52;11.10;;;;;;;3.86;100.00;99986.20;1677978;85;21075;-62
2022/04/09 03:17:41;;;;;;;19.62;11.55;;;;;;;3.99;100.00;100002.83;1699349;83;20996;-62
2022/04/09 03:20:12;;;;;;;21.93;11.68;;;;;;;4.05;100.00;100009.05;1707911;83;21053;-62
2022/04/09 03:22:47;;;;;;;21.15;10.98;;;;;;;4.10;100.00;100005.95;1707694;84;21040;-62
2022/04/09 03:25:17;;;;;;;19.42;10.95;;;;;;;4.17;100.00;100001.53;1707835;82;21044;-62
2022/04/09 03:27:45;;;;;;;20.08;11.70;;;;;;;4.19;100.00;100002.33;1707993;84;21076;-61
2022/04/09 03:30:13;;;;;;;19.37;11.50;;;;;;;4.29;100.00;100004.20;1707655;83;21044;-61
2022/04/09 03:32:43;;;;;;;18.15;10.68;;;;;;;4.37;100.00;100009.48;1730985;83;21036;-62
2022/04/09 03:35:13;;;;;;;20.90;11.95;;;;;;;4.34;100.00;100022.32;1708205;82;21095;-62
2022/04/09 03:37:42;;;;;;;26.05;14.30;;;;;;;4.34;100.00;100026.56;1707771;84;21517;-64
2022/04/09 03:40:13;;;;;;;30.12;15.40;;;;;;;4.33;100.00;100041.02;1707660;83;21583;-62
2022/04/09 03:42:41;;;;;;;32.88;15.43;;;;;;;4.15;100.00;100037.23;1707870;84;21012;-62
2022/04/09 03:45:10;;;;;;;30.35;15.98;;;;;;;4.10;100.00;100040.34;1707908;83;21052;-62
2022/04/09 03:47:37;;;;;;;30.08;15.08;;;;;;;4.23;100.00;100037.48;1707921;84;20997;-62
2022/04/09 03:50:08;;;;;;;27.20;14.85;;;;;;;4.30;100.00;100044.08;1708099;82;21063;-62
2022/04/09 03:52:38;;;;;;;24.90;14.50;;;;;;;4.35;100.00;100044.81;1707920;84;21083;-62
2022/04/09 03:55:08;;;;;;;28.07;14.47;;;;;;;4.34;100.00;100031.66;1707612;84;21531;-62
2022/04/09 03:57:36;;;;;;;22.80;13.38;;;;;;;4.43;100.00;100024.23;1707691;84;21071;-62
2022/04/09 04:00:05;;;;;;;22.30;12.47;;;;;;;4.41;100.00;100027.64;1707686;83;21079;-62
2022/04/09 04:02:35;;;;;;;24.52;13.53;;;;;;;4.57;100.00;100035.72;1708632;83;21118;-62
2022/04/09 04:05:04;;;;;;;17.50;11.03;;;;;;;4.63;100.00;100020.70;1707969;84;21489;-62
2022/04/09 04:07:31;;;;;;;21.00;11.85;;;;;;;4.72;100.00;100015.78;1731644;83;21029;-62
2022/04/09 04:10:05;;;;;;;26.57;13.43;;;;;;;4.81;100.00;100027.02;1707535;84;21103;-62
2022/04/09 04:12:35;;;;;;;24.92;12.70;;;;;;;4.90;100.00;100036.11;1728720;82;21523;-61
2022/04/09 04:15:07;;;;;;;22.52;12.40;;;;;;;4.87;100.00;100044.69;1741087;81;21004;-62
2022/04/09 04:17:42;;;;;;;21.40;12.18;;;;;;;4.73;100.00;100032.77;1744422;81;21012;-63
2022/04/09 04:20:12;;;;;;;20.97;12.30;;;;;;;4.67;100.00;100041.86;1725786;81;21019;-61
2022/04/09 04:22:41;;;;;;;23.85;12.58;;;;;;;4.67;100.00;100051.61;1729539;82;21046;-62
2022/04/09 04:25:11;;;;;;;24.20;12.58;;;;;;;4.68;100.00;100051.16;1735934;82;21062;-62
2022/04/09 04:27:49;;;;;;;21.52;11.90;;;;;;;4.68;100.00;100045.61;1727330;81;21003;-62
2022/04/09 04:30:17;;;;;;;21.40;12.15;;;;;;;4.73;100.00;100044.23;1733340;82;21023;-62
2022/04/09 04:32:45;;;;;;;24.87;13.22;;;;;;;4.83;100.00;100049.92;1721680;82;21052;-63
2022/04/09 04:35:14;;;;;;;24.90;13.03;;;;;;;5.00;100.00;100054.92;1681619;83;21016;-62
2022/04/09 04:37:46;;;;;;;24.95;13.48;;;;;;;5.05;100.00;100059.06;1725883;82;20996;-62
2022/04/09 04:40:15;;;;;;;26.00;13.35;;;;;;;5.08;100.00;100052.61;1729320;82;21044;-62
2022/04/09 04:42:45;;;;;;;20.37;11.90;;;;;;;5.25;100.00;100049.55;1740655;82;21011;-62
2022/04/09 04:45:14;;;;;;;23.20;13.60;;;;;;;5.41;100.00;100041.83;1754547;81;21044;-62
2022/04/09 04:47:47;;;;;;;31.45;16.57;;;;;;;5.57;100.00;100032.82;1754852;82;21035;-62
2022/04/09 04:50:18;;;;;;;31.80;17.15;;;;;;;5.78;100.00;100024.12;1754791;81;21059;-62
2022/04/09 04:52:47;;;;;;;34.30;17.87;;;;;;;6.01;100.00;100028.05;1754370;82;21077;-62
2022/04/09 04:55:16;;;;;;;31.85;16.27;;;;;;;6.23;100.00;100029.90;1754573;82;21638;-62
2022/04/09 04:57:50;;;;;;;36.28;18.25;;;;;;;6.41;100.00;100025.88;1754545;82;21638;-62
2022/04/09 05:00:25;;;;;;;41.33;21.97;;;;;;;6.61;100.00;100033.69;1731400;82;21568;-63
2022/04/09 05:02:58;;;;;;;98.65;44.75;;;;;;;6.76;100.00;100038.69;1754377;81;21035;-62
2022/04/09 05:05:27;;;;;;;100.20;49.58;;;;;;;6.90;100.00;100043.77;1754759;82;21511;-63
2022/04/09 05:07:56;;;;;;;96.47;46.48;;;;;;;6.99;100.00;100044.70;1754618;82;21047;-62
2022/04/09 05:10:27;;;;;;;89.15;40.03;;;;;;;7.12;100.00;100039.52;1754682;82;21016;-62
2022/04/09 05:12:59;;;;;;;49.93;26.30;;;;;;;7.23;100.00;100030.98;1754513;82;21019;-62
2022/04/09 05:15:27;;;;;;;22.65;13.43;;;;;;;7.32;100.00;100018.30;1754646;82;21035;-62
2022/04/09 05:17:54;;;;;;;15.60;9.68;;;;;;;7.55;100.00;100016.11;1773339;80;21011;-62
2022/04/09 05:20:22;;;;;;;18.60;11.43;;;;;;;7.69;100.00;100009.16;1766925;81;21535;-62
2022/04/09 05:22:50;;;;;;;21.15;12.00;;;;;;;7.91;100.00;100004.45;1767077;81;21074;-61
2022/04/09 05:25:22;;;;;;;21.73;12.28;;;;;;;8.11;100.00;100007.45;1787560;80;21031;-62
2022/04/09 05:27:51;;;;;;;23.52;13.05;;;;;;;8.26;100.00;100003.42;1787889;80;21482;-62
2022/04/09 05:30:20;;;;;;;24.55;13.58;;;;;;;8.41;100.00;100007.48;1785228;80;21016;-62
2022/04/09 05:32:48;;;;;;;19.75;11.55;;;;;;;8.60;100.00;100007.51;1787650;80;21055;-62
2022/04/09 05:35:17;;;;;;;15.10;9.40;;;;;;;8.79;100.00;100004.13;1787356;80;21047;-63
2022/04/09 05:37:46;;;;;;;14.10;8.68;;;;;;;8.93;100.00;99999.20;1760815;80;21015;-61
2022/04/09 05:40:17;;;;;;;12.85;8.60;;;;;;;9.15;100.00;99994.37;1787493;80;21070;-62
2022/04/09 05:42:45;;;;;;;12.23;7.85;;;;;;;9.34;100.00;100002.04;1787620;80;21062;-62
2022/04/09 05:45:14;;;;;;;11.63;7.67;;;;;;;9.47;100.00;99997.14;1787830;80;20967;-62
2022/04/09 05:47:46;;;;;;;13.20;7.87;;;;;;;9.68;100.00;99998.69;1787322;80;21071;-62
2022/04/09 05:50:15;;;;;;;12.68;7.67;;;;;;;9.88;100.00;100003.33;1787488;80;21035;-61
2022/04/09 05:52:44;;;;;;;10.28;6.87;;;;;;;10.07;100.00;99990.38;1787583;80;21008;-62
2022/04/09 05:55:14;;;;;;;9.50;6.80;;;;;;;10.37;100.00;99991.88;1787479;80;21086;-62
2022/04/09 05:57:43;;;;;;;9.48;6.35;;;;;;;10.55;100.00;100002.97;1761113;80;21104;-62
2022/04/09 06:00:13;;;;;;;12.88;7.30;;;;;;;10.71;100.00;100008.97;1783606;80;21000;-61
2022/04/09 06:02:46;;;;;;;9.00;6.92;;;;;;;10.83;100.00;100009.61;1746942;82;21008;-61
2022/04/09 06:05:16;;;;;;;11.20;7.03;;;;;;;11.02;100.00;100012.48;1742679;82;21038;-63
2022/04/09 06:07:46;;;;;;;9.70;5.90;;;;;;;11.18;100.00;100014.59;1745504;82;21012;-62
2022/04/09 06:10:14;;;;;;;9.30;6.50;;;;;;;11.36;100.00;100011.48;1741796;82;21072;-63
2022/04/09 06:12:43;;;;;;;9.63;6.58;;;;;;;11.56;100.00;100015.99;1742945;82;21040;-62
2022/04/09 06:15:12;;;;;;;9.45;6.35;;;;;;;11.71;100.00;100011.24;1739379;80;21089;-63
2022/04/09 06:17:42;;;;;;;10.45;6.75;;;;;;;11.90;100.00;100009.78;1746176;81;21008;-62
2022/04/09 06:20:10;;;;;;;11.20;6.20;;;;;;;12.13;100.00;100014.89;1748005;82;20999;-61
2022/04/09 06:22:38;;;;;;;8.10;4.83;;;;;;;12.32;100.00;100009.46;1747928;82;21015;-62
2022/04/09 06:25:08;;;;;;;5.40;3.47;;;;;;;12.51;100.00;100011.80;1747668;82;20997;-62
2022/04/09 06:27:39;;;;;;;3.65;2.02;;;;;;;12.80;100.00;100013.06;1755696;82;21483;-62
2022/04/09 06:30:09;;;;;;;2.80;1.50;;;;;;;13.01;100.00;100019.48;1748904;82;20999;-62
2022/04/09 06:32:38;;;;;;;2.15;1.67;;;;;;;13.40;100.00;100026.15;1752003;82;21029;-63
2022/04/09 06:35:07;;;;;;;3.25;1.77;;;;;;;13.58;100.00;100027.59;1748628;82;21543;-62
2022/04/09 06:37:38;;;;;;;3.37;1.50;;;;;;;13.76;100.00;100036.36;1746688;81;21048;-62
2022/04/09 06:40:14;;;;;;;3.67;1.55;;;;;;;13.90;98.16;100040.64;1746913;82;20976;-62
2022/04/09 06:42:40;;;;;;;3.02;1.67;;;;;;;14.01;96.31;100043.37;1747804;80;21008;-62
2022/04/09 06:45:21;;;;;;;4.53;1.70;;;;;;;14.07;94.50;100049.43;1752958;80;21028;-62
2022/04/09 06:47:58;;;;;;;2.33;1.60;;;;;;;14.19;92.32;100046.47;1743322;82;20997;-61
2022/04/09 06:50:26;;;;;;;2.70;1.60;;;;;;;14.36;93.72;100046.66;1742841;82;21083;-61
2022/04/09 06:52:54;;;;;;;2.37;1.45;;;;;;;14.56;92.64;100044.88;1748901;82;21006;-63
2022/04/09 06:55:23;;;;;;;2.12;1.55;;;;;;;14.69;90.50;100041.44;1743548;81;20974;-62
2022/04/09 06:57:54;;;;;;;3.60;1.50;;;;;;;14.85;86.92;100042.03;1749331;82;21512;-62
2022/04/09 07:00:23;;;;;;;2.50;1.52;;;;;;;14.95;87.39;100038.34;1747498;82;21019;-62
2022/04/09 07:02:52;;;;;;;4.40;2.20;;;;;;;15.06;86.96;100042.28;1750985;82;21012;-62
2022/04/09 07:05:19;;;;;;;3.95;1.87;;;;;;;15.23;85.46;100045.01;1750216;82;21013;-62
2022/04/09 07:07:50;;;;;;;4.08;1.95;;;;;;;15.32;84.75;100054.70;1751391;82;21476;-62
2022/04/09 07:10:17;;;;;;;4.12;1.80;;;;;;;15.49;84.96;100051.38;1746540;81;21040;-63
2022/04/09 07:12:45;;;;;;;4.08;1.92;;;;;;;15.59;82.56;100052.36;1746860;82;21008;-63
2022/04/09 07:15:13;;;;;;;2.70;1.60;;;;;;;15.72;81.74;100057.52;1751343;82;21035;-63
2022/04/09 07:17:43;;;;;;;3.70;1.80;;;;;;;15.81;80.13;100064.64;1746604;82;21034;-63
2022/04/09 07:20:11;;;;;;;3.72;1.87;;;;;;;15.90;80.52;100061.39;1749768;82;21047;-61
2022/04/09 07:22:40;;;;;;;5.25;1.80;;;;;;;16.10;78.04;100061.22;1752978;81;21079;-60
2022/04/09 07:25:10;;;;;;;5.83;1.95;;;;;;;16.23;72.55;100061.94;1748338;82;21028;-61
2022/04/09 07:27:43;;;;;;;5.05;2.00;;;;;;;16.30;75.74;100061.03;1742522;82;20955;-62
2022/04/09 07:30:16;;;;;;;3.05;2.00;;;;;;;16.55;75.08;100057.87;1725243;82;21033;-61
2022/04/09 07:32:46;;;;;;;5.17;3.00;;;;;;;16.71;72.86;100055.74;1695471;84;21043;-62
2022/04/09 07:35:16;;;;;;;6.17;2.87;;;;;;;16.89;70.84;100059.18;1725782;83;21042;-61
2022/04/09 07:37:51;;;;;;;4.08;2.52;;;;;;;17.10;71.25;100063.20;1725842;82;21018;-62
2022/04/09 07:40:20;;;;;;;4.40;2.80;;;;;;;17.15;70.85;100062.34;1725913;83;20988;-62
2022/04/09 07:42:49;;;;;;;3.55;2.30;;;;;;;17.28;69.12;100063.52;1708155;82;21070;-62
2022/04/09 07:45:17;;;;;;;6.70;2.98;;;;;;;17.40;67.72;100063.36;1708696;83;21001;-62
2022/04/09 07:47:47;;;;;;;5.42;2.85;;;;;;;17.61;67.80;100065.19;1696414;84;20995;-62
2022/04/09 07:50:15;;;;;;;6.15;3.30;;;;;;;17.75;65.38;100054.48;1731471;82;21031;-62
2022/04/09 07:52:43;;;;;;;9.13;3.50;;;;;;;18.01;64.09;100047.66;1685123;85;21520;-62
2022/04/09 07:55:14;;;;;;;6.75;3.67;;;;;;;17.91;61.69;100044.16;1690801;84;21025;-62
2022/04/09 07:57:43;;;;;;;6.25;3.90;;;;;;;18.01;61.22;100033.33;1693185;84;21091;-62
2022/04/09 08:00:14;;;;;;;7.58;4.35;;;;;;;18.10;61.49;100042.16;1740202;82;21007;-62
2022/04/09 08:02:41;;;;;;;10.23;5.20;;;;;;;18.29;62.43;100040.98;1671813;84;21003;-61
2022/04/09 08:05:12;;;;;;;10.05;5.12;;;;;;;18.32;61.30;100041.19;1746427;82;20988;-61
2022/04/09 08:07:42;;;;;;;13.22;5.97;;;;;;;18.53;61.70;100043.75;1750439;81;21032;-62
2022/04/09 08:10:14;;;;;;;11.85;6.80;;;;;;;18.58;60.18;100040.28;1747890;81;21016;-61
2022/04/09 08:12:42;;;;;;;15.78;8.20;;;;;;;18.64;60.98;100045.47;1744151;82;21020;-62
2022/04/09 08:15:11;;;;;;;15.23;7.97;;;;;;;18.65;58.26;100044.00;1748073;82;21055;-62
2022/04/09 08:17:40;;;;;;;15.60;8.10;;;;;;;18.51;57.94;100039.99;1749499;81;21079;-63
2022/04/09 08:20:12;;;;;;;20.35;10.20;;;;;;;18.77;58.71;100026.00;1736383;82;21489;-62
2022/04/09 08:22:40;;;;;;;20.77;9.95;;;;;;;19.09;57.23;100029.43;1740209;82;21032;-61
2022/04/09 08:25:08;;;;;;;20.92;11.12;;;;;;;19.39;57.27;100028.03;1739850;82;20992;-62
2022/04/09 08:27:35;;;;;;;24.72;11.48;;;;;;;19.62;54.73;100028.57;1744196;82;21039;-61
2022/04/09 08:30:06;;;;;;;25.85;12.50;;;;;;;19.58;53.88;100027.20;1739555;82;20996;-61
2022/04/09 08:32:34;;;;;;;28.25;12.58;;;;;;;19.71;53.30;100036.60;1747799;82;21460;-63
2022/04/09 08:35:02;;;;;;;23.50;12.37;;;;;;;19.57;55.22;100025.56;1752497;82;21048;-62
2022/04/09 08:37:31;;;;;;;28.45;14.23;;;;;;;19.71;52.75;100022.23;1752124;82;21071;-62
2022/04/09 08:39:58;;;;;;;27.67;13.80;;;;;;;19.76;52.42;100018.22;1752026;82;21036;-63
2022/04/09 08:42:27;;;;;;;20.77;9.80;;;;;;;19.96;53.44;100014.29;1751316;82;21039;-62
2022/04/09 08:44:55;;;;;;;17.95;8.08;;;;;;;20.01;51.66;100002.92;1751435;82;21043;-62
2022/04/09 08:47:28;;;;;;;9.43;4.10;;;;;;;20.00;50.89;100014.35;1751351;82;21056;-62
2022/04/09 08:49:54;;;;;;;4.97;2.95;;;;;;;20.05;48.25;100009.51;1751339;82;21067;-62
2022/04/09 08:52:22;;;;;;;5.03;2.80;;;;;;;20.18;46.10;100012.66;1751450;82;21067;-62
2022/04/09 08:54:50;;;;;;;5.42;2.85;;;;;;;20.20;46.03;100009.91;1751066;82;21075;-62
2022/04/09 08:57:17;;;;;;;7.58;2.37;;;;;;;20.47;46.38;100003.89;1751265;82;21142;-61
2022/04/09 08:59:44;;;;;;;2.62;2.00;;;;;;;20.45;45.12;100000.59;1751334;82;21011;-63
2022/04/09 09:02:12;;;;;;;3.58;2.10;;;;;;;20.30;45.33;99993.71;1751428;82;21062;-62
2022/04/09 09:04:39;;;;;;;3.90;1.80;;;;;;;20.40;44.97;100004.14;1751418;82;21028;-62
2022/04/09 09:07:22;;;;;;;4.25;2.08;;;;;;;20.41;43.66;100012.30;1751237;82;21332;-62
2022/04/09 09:09:51;;;;;;;6.33;2.60;;;;;;;20.53;43.15;100009.03;1751582;82;21552;-61
2022/04/09 09:12:30;;;;;;;6.90;2.50;;;;;;;20.57;43.31;100012.51;1751253;82;21059;-62
2022/04/09 09:15:02;;;;;;;9.58;2.37;;;;;;;20.55;43.93;100005.78;1751568;82;20999;-62
2022/04/09 09:17:30;;;;;;;3.37;1.62;;;;;;;20.42;40.79;100015.27;1751593;82;21075;-62
2022/04/09 09:19:58;;;;;;;5.05;1.85;;;;;;;20.39;40.57;100015.05;1751143;81;21091;-62
2022/04/09 09:22:40;;;;;;;2.87;1.80;;;;;;;20.35;41.07;100025.45;1751400;82;21044;-62
2022/04/09 09:25:11;;;;;;;3.05;1.70;;;;;;;20.25;42.22;100019.44;1744491;82;21004;-62
2022/04/09 09:27:43;;;;;;;3.47;1.80;;;;;;;20.55;43.09;100018.37;1738809;82;21008;-62
2022/04/09 09:30:13;;;;;;;3.98;1.50;;;;;;;20.75;42.14;100013.09;1726405;82;21031;-62
2022/04/09 09:32:42;;;;;;;2.47;1.52;;;;;;;20.93;42.00;100013.95;1741254;82;21070;-62
2022/04/09 09:35:14;;;;;;;4.05;1.50;;;;;;;20.79;41.03;100010.52;1738695;82;21047;-62
2022/04/09 09:37:41;;;;;;;3.52;1.40;;;;;;;20.87;39.83;100007.19;1740618;82;21020;-63
2022/04/09 09:40:10;;;;;;;2.37;1.37;;;;;;;20.72;39.30;100005.52;1737797;82;21119;-62
2022/04/09 09:42:37;;;;;;;2.65;1.60;;;;;;;20.58;40.11;100010.73;1737993;82;21116;-62
2022/04/09 09:45:07;;;;;;;3.05;1.50;;;;;;;20.63;41.00;99995.95;1737916;82;22290;-62
2022/04/09 09:47:34;;;;;;;4.20;1.50;;;;;;;20.78;41.02;99997.94;1739234;82;21023;-62
2022/04/09 09:50:01;;;;;;;3.80;1.70;;;;;;;20.58;41.04;99984.13;1740328;82;21047;-62
2022/04/09 09:52:36;;;;;;;1.42;1.22;;;;;;;20.57;40.65;99990.28;1741989;82;21012;-62
2022/04/09 09:55:10;;;;;;;2.10;1.45;;;;;;;20.67;40.99;99985.05;1743906;80;21043;-62
2022/04/09 09:57:38;;;;;;;4.15;1.77;;;;;;;20.49;40.33;99990.19;1739173;82;21122;-62
2022/04/09 10:00:11;;;;;;;3.50;1.90;;;;;;;20.90;41.17;99989.87;1737751;82;21063;-62
2022/04/09 10:02:39;;;;;;;2.87;1.50;;;;;;;20.94;40.60;99989.91;1738126;82;21527;-62
2022/04/09 10:05:08;;;;;;;4.70;1.70;;;;;;;20.94;40.09;100005.11;1737905;82;21103;-62
2022/04/09 10:07:36;;;;;;;2.72;1.60;;;;;;;20.91;40.25;99992.84;1738167;82;21048;-62
2022/04/09 10:10:07;;;;;;;2.42;1.70;;;;;;;20.94;40.53;99990.73;1737872;82;21111;-62
2022/04/09 10:12:41;;;;;;;4.65;1.85;;;;;;;21.03;40.52;99991.66;1737534;82;21616;-62
2022/04/09 10:15:10;;;;;;;2.58;1.70;;;;;;;21.04;40.02;99968.92;1737971;82;21508;-61
2022/04/09 10:17:39;;;;;;;3.05;1.80;;;;;;;21.37;39.93;99976.11;1737874;82;21067;-62
2022/04/09 10:20:08;;;;;;;4.92;2.02;;;;;;;21.67;40.35;99975.38;1720980;82;21068;-62
2022/04/09 10:22:43;;;;;;;4.15;2.08;;;;;;;21.72;40.29;99968.39;1737904;82;21575;-62
2022/04/09 10:25:11;;;;;;;3.70;2.22;;;;;;;21.54;40.53;99967.11;1737714;82;21576;-62
2022/04/09 10:27:49;;;;;;;5.17;2.05;;;;;;;21.54;40.89;99965.80;1737931;82;21028;-62
2022/04/09 10:30:24;;;;;;;5.65;2.15;;;;;;;21.86;41.35;99960.44;1737802;82;21055;-63
2022/04/09 10:32:59;;;;;;;5.00;2.05;;;;;;;21.95;40.75;99958.21;1738046;82;21639;-62
2022/04/09 10:35:38;;;;;;;3.30;2.00;;;;;;;21.69;39.78;99953.78;1737603;82;21001;-62
2022/04/09 10:38:14;;;;;;;5.05;2.15;;;;;;;21.71;40.50;99949.21;1737925;82;21059;-62
2022/04/09 10:40:50;;;;;;;2.55;1.98;;;;;;;21.85;40.36;99945.70;1737895;82;21056;-62
2022/04/09 10:43:30;;;;;;;4.03;2.20;;;;;;;21.88;41.05;99935.75;1737863;82;21107;-61
2022/04/09 10:46:17;;;;;;;4.37;2.20;;;;;;;21.97;40.42;99932.67;1738032;82;21076;-61
2022/04/09 10:48:44;;;;;;;3.80;2.47;;;;;;;21.94;40.43;99922.52;1737509;82;21056;-61
2022/04/09 10:51:15;;;;;;;6.22;2.60;;;;;;;21.88;40.52;99925.73;1737867;82;21032;-62
2022/04/09 10:53:47;;;;;;;5.42;2.60;;;;;;;22.04;40.23;99918.45;1737607;82;21068;-62
2022/04/09 10:56:29;;;;;;;7.03;3.00;;;;;;;21.71;40.96;99923.02;1737869;82;21048;-62
2022/04/09 10:59:13;;;;;;;6.30;3.12;;;;;;;21.60;42.38;99914.93;1721380;82;21595;-62
2022/04/09 11:01:51;;;;;;;7.60;3.25;;;;;;;21.78;43.42;99914.07;1736844;82;21120;-62
2022/04/09 11:07:09;;;;;;;7.03;3.30;;;;;;;21.97;44.96;99911.21;1737206;82;21008;-62
2022/04/09 11:10:00;;;;;;;5.08;3.22;;;;;;;22.23;46.09;99904.30;1738769;82;21035;-62
2022/04/09 11:12:40;;;;;;;6.58;3.72;;;;;;;22.15;46.27;99903.27;1738627;82;21008;-62
2022/04/09 11:15:12;;;;;;;9.25;3.52;;;;;;;22.43;46.53;99902.27;1740675;82;21071;-62
2022/04/09 11:17:47;;;;;;;9.63;3.40;;;;;;;22.45;47.58;99897.69;1738918;82;21063;-61
2022/04/09 11:20:22;;;;;;;6.83;3.70;;;;;;;22.57;47.80;99896.41;1697975;83;21049;-62
2022/04/09 11:22:55;;;;;;;7.78;3.25;;;;;;;22.43;49.32;99893.09;1745017;82;21535;-62
2022/04/09 11:25:29;;;;;;;8.95;3.72;;;;;;;22.87;48.59;99875.31;1737396;82;21005;-62
2022/04/09 11:28:17;;;;;;;7.37;3.00;;;;;;;23.04;48.39;99870.09;1736957;82;21083;-62
2022/04/09 11:30:58;;;;;;;7.90;4.30;;;;;;;23.05;48.81;99863.84;1755873;80;21058;-63
2022/04/09 11:33:25;;;;;;;9.28;3.80;;;;;;;22.84;49.12;99859.88;1742844;80;21000;-62
2022/04/09 11:35:53;;;;;;;10.55;4.05;;;;;;;22.78;49.14;99864.45;1763074;80;21028;-62
2022/04/09 11:38:28;;;;;;;8.28;3.83;;;;;;;22.85;50.16;99863.31;1757289;80;21018;-62